Almond, WI (54909)

9:02 AM CDT on August 30, 2015 (GMT -0500)
KWIWAUPA3 | | Change Station
CLOSE
Current Station
Personal Weather Station
Location: Waupaca, WI
Elevation: 900 ft
Nearby Weather Stations
Active Advisory: Dense Fog Advisory

Elev 900 ft 44.38 °N, 89.23 °W | Updated 3 minutes ago

Fog
Fog
59.0 °F
Feels Like 59.0 °F
N
0.0
Wind Variable Wind from East
Gusts 0.0 mph

Today
High -- | Low -- °F
--% Chance of Precip.
Yesterday
High -- | Low -- °F
Precip. -- in
6:17 AM 7:37 PM
Full, 99% visible
Pressure 30.08 in
Visibility 0.5 miles
Clouds Overcast 100 ft
Dew Point 58 °F
Humidity 97%
Rainfall 0.00 in
Snow Depth Not available.
UV 1 out of 12
Pollen 10.00 out of 12
Air Quality Not available.
Flu Activity Not available.
METAR KPCZ 301355Z AUTO 00000KT 1/2SM FG OVC001 15/15 A3008 RMK AO2 T01520145
Pressure 30.08 in
Visibility 0.5 miles
Clouds Overcast 100 ft
Dew Point 58 °F
Humidity 97%
Rainfall 0.00 in
Snow Depth Not available.
UV 1 out of 12
Pollen 10.00 out of 12
Air Quality Not available.
Flu Activity Not available.
METAR KPCZ 301355Z AUTO 00000KT 1/2SM FG OVC001 15/15 A3008 RMK AO2 T01520145

10-Day Weather Forecast

×

Almanac

Astronomy

Aug. 30, 2015 Rise Set
Actual Time
Civil Twilight
Nautical Twilight
Astronomical Twilight
Moon
Length of Visible Light
Length of Day
Tomorrow will be .
, % of the Moon is Illuminated

Today's Extremes

State Highs State Lows

Community

WunderPhotos

Upload Photos

1,850,963 photos uploaded!

WunderBlogs® & News

Nearby

Air Quality

  Air Quality AQ Index Pollutant
Not available.

Snow Depth

Station Depth Elevation

Earthquake Activity

City Distance Mag. Time & Date
Minimum magnitude displayed is 2.5.

Coastal Water Temperatures

Place Temperature

Stations

Nearby Weather Stations

Station Location Temp. Windchill Dew Point Humidity Wind Precip. Elev Updated Type
                   
Dense Fog Advisory
Statement as of 8:56 AM CDT on August 30, 2015

... Dense fog advisory will expire at 9 am CDT this morning...

The dense fog that prompted the dense fog advisory has begun to
lift and visibilities were gradually improving. Therefore... the
dense fog advisory will be allowed to expire at 9 am.


AK